sensor_id;sensor_type;location;lat;lon;timestamp;P1;durP1;ratioP1;P2;durP2;ratioP2
40637;SDS011;26336;44.696;10.622;2023-03-05T00:01:57;30.20;;;20.77;;
40637;SDS011;26336;44.696;10.622;2023-03-05T00:05:01;29.80;;;21.00;;
40637;SDS011;26336;44.696;10.622;2023-03-05T00:08:05;30.80;;;19.30;;
40637;SDS011;26336;44.696;10.622;2023-03-05T00:11:09;34.07;;;20.13;;
40637;SDS011;26336;44.696;10.622;2023-03-05T00:14:15;31.33;;;20.43;;
40637;SDS011;26336;44.696;10.622;2023-03-05T00:17:19;30.63;;;18.87;;
40637;SDS011;26336;44.696;10.622;2023-03-05T00:20:23;32.07;;;19.77;;
40637;SDS011;26336;44.696;10.622;2023-03-05T00:23:27;29.77;;;19.60;;
40637;SDS011;26336;44.696;10.622;2023-03-05T00:26:31;32.33;;;19.80;;
40637;SDS011;26336;44.696;10.622;2023-03-05T00:29:37;30.40;;;19.80;;
40637;SDS011;26336;44.696;10.622;2023-03-05T00:32:41;32.17;;;19.70;;
40637;SDS011;26336;44.696;10.622;2023-03-05T00:35:45;32.77;;;19.10;;
40637;SDS011;26336;44.696;10.622;2023-03-05T00:38:49;30.03;;;18.57;;
40637;SDS011;26336;44.696;10.622;2023-03-05T00:41:53;28.63;;;18.20;;
40637;SDS011;26336;44.696;10.622;2023-03-05T00:44:57;30.57;;;18.77;;
40637;SDS011;26336;44.696;10.622;2023-03-05T00:48:02;29.27;;;18.90;;
40637;SDS011;26336;44.696;10.622;2023-03-05T00:51:06;30.07;;;19.37;;
40637;SDS011;26336;44.696;10.622;2023-03-05T00:54:11;26.47;;;17.63;;
40637;SDS011;26336;44.696;10.622;2023-03-05T00:57:15;29.60;;;19.03;;
40637;SDS011;26336;44.696;10.622;2023-03-05T01:00:20;25.57;;;18.10;;
40637;SDS011;26336;44.696;10.622;2023-03-05T01:03:24;28.93;;;16.87;;
40637;SDS011;26336;44.696;10.622;2023-03-05T01:06:28;27.30;;;17.60;;
40637;SDS011;26336;44.696;10.622;2023-03-05T01:09:32;29.00;;;17.80;;
40637;SDS011;26336;44.696;10.622;2023-03-05T01:12:36;32.70;;;18.03;;
40637;SDS011;26336;44.696;10.622;2023-03-05T01:15:40;27.57;;;16.53;;
40637;SDS011;26336;44.696;10.622;2023-03-05T01:18:44;25.20;;;16.03;;
40637;SDS011;26336;44.696;10.622;2023-03-05T01:21:48;24.20;;;15.50;;
40637;SDS011;26336;44.696;10.622;2023-03-05T01:24:52;31.20;;;17.23;;
40637;SDS011;26336;44.696;10.622;2023-03-05T01:27:56;24.80;;;17.00;;
40637;SDS011;26336;44.696;10.622;2023-03-05T01:31:00;25.17;;;16.17;;
40637;SDS011;26336;44.696;10.622;2023-03-05T01:34:04;28.20;;;15.87;;
40637;SDS011;26336;44.696;10.622;2023-03-05T01:37:08;20.27;;;14.67;;
40637;SDS011;26336;44.696;10.622;2023-03-05T01:40:14;21.23;;;14.93;;
40637;SDS011;26336;44.696;10.622;2023-03-05T01:43:29;22.40;;;15.03;;
40637;SDS011;26336;44.696;10.622;2023-03-05T01:46:34;22.95;;;14.98;;
40637;SDS011;26336;44.696;10.622;2023-03-05T01:49:40;25.60;;;15.67;;
40637;SDS011;26336;44.696;10.622;2023-03-05T01:52:45;21.57;;;14.57;;
40637;SDS011;26336;44.696;10.622;2023-03-05T01:55:54;24.47;;;14.40;;
40637;SDS011;26336;44.696;10.622;2023-03-05T01:58:59;25.27;;;15.97;;
40637;SDS011;26336;44.696;10.622;2023-03-05T02:02:07;27.33;;;15.63;;
40637;SDS011;26336;44.696;10.622;2023-03-05T02:05:13;24.57;;;15.37;;
40637;SDS011;26336;44.696;10.622;2023-03-05T02:08:22;25.90;;;15.60;;
40637;SDS011;26336;44.696;10.622;2023-03-05T02:11:26;27.10;;;15.70;;
40637;SDS011;26336;44.696;10.622;2023-03-05T02:14:30;26.00;;;17.73;;
40637;SDS011;26336;44.696;10.622;2023-03-05T02:17:35;28.03;;;18.10;;
40637;SDS011;26336;44.696;10.622;2023-03-05T02:23:54;35.93;;;21.77;;
40637;SDS011;26336;44.696;10.622;2023-03-05T02:26:58;35.17;;;22.03;;
40637;SDS011;26336;44.696;10.622;2023-03-05T02:30:03;38.17;;;23.13;;
40637;SDS011;26336;44.696;10.622;2023-03-05T02:33:08;34.33;;;21.53;;
40637;SDS011;26336;44.696;10.622;2023-03-05T02:36:12;30.57;;;19.10;;
40637;SDS011;26336;44.696;10.622;2023-03-05T02:39:16;33.97;;;19.57;;
40637;SDS011;26336;44.696;10.622;2023-03-05T02:42:20;32.97;;;19.23;;
40637;SDS011;26336;44.696;10.622;2023-03-05T02:45:24;34.53;;;19.00;;
40637;SDS011;26336;44.696;10.622;2023-03-05T02:48:29;30.73;;;19.23;;
40637;SDS011;26336;44.696;10.622;2023-03-05T02:51:33;30.07;;;17.43;;
40637;SDS011;26336;44.696;10.622;2023-03-05T02:54:37;27.23;;;17.23;;
40637;SDS011;26336;44.696;10.622;2023-03-05T02:57:41;26.97;;;17.33;;
40637;SDS011;26336;44.696;10.622;2023-03-05T03:00:45;29.03;;;17.20;;
40637;SDS011;26336;44.696;10.622;2023-03-05T03:03:49;25.63;;;17.53;;
40637;SDS011;26336;44.696;10.622;2023-03-05T03:06:53;24.63;;;16.37;;
40637;SDS011;26336;44.696;10.622;2023-03-05T03:09:57;26.70;;;17.33;;
40637;SDS011;26336;44.696;10.622;2023-03-05T03:13:01;27.43;;;15.60;;
40637;SDS011;26336;44.696;10.622;2023-03-05T03:16:06;27.17;;;17.87;;
40637;SDS011;26336;44.696;10.622;2023-03-05T03:19:12;26.23;;;16.27;;
40637;SDS011;26336;44.696;10.622;2023-03-05T03:22:17;26.23;;;16.50;;
40637;SDS011;26336;44.696;10.622;2023-03-05T03:25:21;25.00;;;16.43;;
40637;SDS011;26336;44.696;10.622;2023-03-05T03:28:28;23.67;;;16.17;;
40637;SDS011;26336;44.696;10.622;2023-03-05T03:31:32;26.73;;;15.70;;
40637;SDS011;26336;44.696;10.622;2023-03-05T03:34:37;25.73;;;17.23;;
40637;SDS011;26336;44.696;10.622;2023-03-05T03:37:41;24.33;;;17.53;;
40637;SDS011;26336;44.696;10.622;2023-03-05T03:40:45;27.03;;;17.07;;
40637;SDS011;26336;44.696;10.622;2023-03-05T03:43:48;22.90;;;15.43;;
40637;SDS011;26336;44.696;10.622;2023-03-05T03:46:52;24.10;;;15.00;;
40637;SDS011;26336;44.696;10.622;2023-03-05T03:49:59;24.80;;;14.93;;
40637;SDS011;26336;44.696;10.622;2023-03-05T03:53:03;23.80;;;14.73;;
40637;SDS011;26336;44.696;10.622;2023-03-05T03:56:07;23.63;;;14.70;;
40637;SDS011;26336;44.696;10.622;2023-03-05T03:59:11;24.53;;;15.83;;
40637;SDS011;26336;44.696;10.622;2023-03-05T04:02:15;23.10;;;14.23;;
40637;SDS011;26336;44.696;10.622;2023-03-05T04:05:19;22.57;;;14.97;;
40637;SDS011;26336;44.696;10.622;2023-03-05T04:08:23;22.00;;;13.50;;
40637;SDS011;26336;44.696;10.622;2023-03-05T04:11:27;24.70;;;13.13;;
40637;SDS011;26336;44.696;10.622;2023-03-05T04:14:31;23.50;;;14.00;;
40637;SDS011;26336;44.696;10.622;2023-03-05T04:17:35;23.77;;;13.80;;
40637;SDS011;26336;44.696;10.622;2023-03-05T04:20:39;23.20;;;14.20;;
40637;SDS011;26336;44.696;10.622;2023-03-05T04:23:43;22.30;;;13.90;;
40637;SDS011;26336;44.696;10.622;2023-03-05T04:26:47;22.67;;;14.23;;
40637;SDS011;26336;44.696;10.622;2023-03-05T04:29:50;21.97;;;13.90;;
40637;SDS011;26336;44.696;10.622;2023-03-05T04:32:54;20.00;;;11.87;;
40637;SDS011;26336;44.696;10.622;2023-03-05T04:35:58;15.93;;;11.13;;
40637;SDS011;26336;44.696;10.622;2023-03-05T04:39:02;13.97;;;10.07;;
40637;SDS011;26336;44.696;10.622;2023-03-05T04:42:07;16.57;;;10.37;;
40637;SDS011;26336;44.696;10.622;2023-03-05T04:45:12;15.60;;;10.20;;
40637;SDS011;26336;44.696;10.622;2023-03-05T04:48:16;16.43;;;10.73;;
40637;SDS011;26336;44.696;10.622;2023-03-05T04:51:23;16.97;;;10.57;;
40637;SDS011;26336;44.696;10.622;2023-03-05T04:54:27;15.70;;;10.33;;
40637;SDS011;26336;44.696;10.622;2023-03-05T04:57:30;18.97;;;10.53;;
40637;SDS011;26336;44.696;10.622;2023-03-05T05:00:34;15.33;;;10.07;;
40637;SDS011;26336;44.696;10.622;2023-03-05T05:03:41;13.40;;;9.60;;
40637;SDS011;26336;44.696;10.622;2023-03-05T05:06:45;15.93;;;10.90;;
40637;SDS011;26336;44.696;10.622;2023-03-05T05:09:49;15.40;;;10.53;;
40637;SDS011;26336;44.696;10.622;2023-03-05T05:12:53;14.73;;;9.70;;
40637;SDS011;26336;44.696;10.622;2023-03-05T05:15:57;17.13;;;10.37;;
40637;SDS011;26336;44.696;10.622;2023-03-05T05:19:01;14.33;;;9.30;;
40637;SDS011;26336;44.696;10.622;2023-03-05T05:22:06;18.00;;;10.90;;
40637;SDS011;26336;44.696;10.622;2023-03-05T05:25:10;15.87;;;11.07;;
40637;SDS011;26336;44.696;10.622;2023-03-05T05:28:14;13.13;;;9.53;;
40637;SDS011;26336;44.696;10.622;2023-03-05T05:31:18;16.10;;;9.70;;
40637;SDS011;26336;44.696;10.622;2023-03-05T05:34:22;16.17;;;10.27;;
40637;SDS011;26336;44.696;10.622;2023-03-05T05:37:28;13.40;;;9.27;;
40637;SDS011;26336;44.696;10.622;2023-03-05T05:40:32;15.20;;;9.13;;
40637;SDS011;26336;44.696;10.622;2023-03-05T05:43:36;14.53;;;9.83;;
40637;SDS011;26336;44.696;10.622;2023-03-05T05:46:40;14.50;;;9.60;;
40637;SDS011;26336;44.696;10.622;2023-03-05T05:49:44;13.10;;;8.10;;
40637;SDS011;26336;44.696;10.622;2023-03-05T05:52:49;13.20;;;8.77;;
40637;SDS011;26336;44.696;10.622;2023-03-05T05:55:54;14.67;;;9.30;;
40637;SDS011;26336;44.696;10.622;2023-03-05T05:58:58;15.63;;;9.70;;
40637;SDS011;26336;44.696;10.622;2023-03-05T06:02:02;14.40;;;9.30;;
40637;SDS011;26336;44.696;10.622;2023-03-05T06:05:07;16.07;;;9.83;;
40637;SDS011;26336;44.696;10.622;2023-03-05T06:08:13;13.17;;;9.27;;
40637;SDS011;26336;44.696;10.622;2023-03-05T06:11:17;12.43;;;8.63;;
40637;SDS011;26336;44.696;10.622;2023-03-05T06:14:22;14.47;;;9.27;;
40637;SDS011;26336;44.696;10.622;2023-03-05T06:17:27;11.83;;;8.33;;
40637;SDS011;26336;44.696;10.622;2023-03-05T06:20:31;15.07;;;9.13;;
40637;SDS011;26336;44.696;10.622;2023-03-05T06:23:35;16.73;;;9.97;;
40637;SDS011;26336;44.696;10.622;2023-03-05T06:26:39;14.03;;;9.00;;
40637;SDS011;26336;44.696;10.622;2023-03-05T06:29:43;14.83;;;9.53;;
40637;SDS011;26336;44.696;10.622;2023-03-05T06:32:47;14.70;;;9.60;;
40637;SDS011;26336;44.696;10.622;2023-03-05T06:35:51;14.20;;;9.00;;
40637;SDS011;26336;44.696;10.622;2023-03-05T06:38:55;11.93;;;8.70;;
40637;SDS011;26336;44.696;10.622;2023-03-05T06:42:00;14.90;;;8.80;;
40637;SDS011;26336;44.696;10.622;2023-03-05T06:45:04;11.10;;;7.90;;
40637;SDS011;26336;44.696;10.622;2023-03-05T06:48:08;15.20;;;8.63;;
40637;SDS011;26336;44.696;10.622;2023-03-05T06:51:16;12.70;;;8.37;;
40637;SDS011;26336;44.696;10.622;2023-03-05T06:54:20;14.00;;;9.73;;
40637;SDS011;26336;44.696;10.622;2023-03-05T06:57:24;12.97;;;9.17;;
40637;SDS011;26336;44.696;10.622;2023-03-05T07:00:28;14.87;;;10.20;;
40637;SDS011;26336;44.696;10.622;2023-03-05T07:03:33;14.57;;;9.53;;
40637;SDS011;26336;44.696;10.622;2023-03-05T07:06:40;18.70;;;11.17;;
40637;SDS011;26336;44.696;10.622;2023-03-05T07:09:44;14.23;;;10.03;;
40637;SDS011;26336;44.696;10.622;2023-03-05T07:12:50;19.53;;;10.97;;
40637;SDS011;26336;44.696;10.622;2023-03-05T07:15:55;16.13;;;10.13;;
40637;SDS011;26336;44.696;10.622;2023-03-05T07:19:00;12.63;;;9.33;;
40637;SDS011;26336;44.696;10.622;2023-03-05T07:22:07;16.20;;;10.60;;
40637;SDS011;26336;44.696;10.622;2023-03-05T07:25:11;15.33;;;10.13;;
40637;SDS011;26336;44.696;10.622;2023-03-05T07:28:15;15.87;;;10.53;;
40637;SDS011;26336;44.696;10.622;2023-03-05T07:31:20;15.30;;;10.30;;
40637;SDS011;26336;44.696;10.622;2023-03-05T07:34:29;14.57;;;10.07;;
40637;SDS011;26336;44.696;10.622;2023-03-05T07:37:33;15.10;;;9.47;;
40637;SDS011;26336;44.696;10.622;2023-03-05T07:40:39;11.93;;;8.33;;
40637;SDS011;26336;44.696;10.622;2023-03-05T07:43:43;17.60;;;9.67;;
40637;SDS011;26336;44.696;10.622;2023-03-05T07:46:48;18.33;;;9.17;;
40637;SDS011;26336;44.696;10.622;2023-03-05T07:49:52;14.03;;;8.67;;
40637;SDS011;26336;44.696;10.622;2023-03-05T07:52:57;13.23;;;8.53;;
40637;SDS011;26336;44.696;10.622;2023-03-05T07:56:01;13.40;;;8.13;;
40637;SDS011;26336;44.696;10.622;2023-03-05T07:59:09;13.60;;;8.33;;
40637;SDS011;26336;44.696;10.622;2023-03-05T08:02:14;13.83;;;7.93;;
40637;SDS011;26336;44.696;10.622;2023-03-05T08:05:18;15.40;;;9.37;;
40637;SDS011;26336;44.696;10.622;2023-03-05T08:08:22;12.57;;;8.87;;
40637;SDS011;26336;44.696;10.622;2023-03-05T08:11:26;13.67;;;8.40;;
40637;SDS011;26336;44.696;10.622;2023-03-05T08:14:31;12.90;;;8.57;;
40637;SDS011;26336;44.696;10.622;2023-03-05T08:17:37;13.40;;;8.53;;
40637;SDS011;26336;44.696;10.622;2023-03-05T08:20:41;14.13;;;9.20;;
40637;SDS011;26336;44.696;10.622;2023-03-05T08:23:46;16.07;;;9.43;;
40637;SDS011;26336;44.696;10.622;2023-03-05T08:26:50;13.50;;;8.70;;
40637;SDS011;26336;44.696;10.622;2023-03-05T08:29:53;15.67;;;9.00;;
40637;SDS011;26336;44.696;10.622;2023-03-05T08:32:58;14.87;;;9.70;;
40637;SDS011;26336;44.696;10.622;2023-03-05T08:36:08;16.40;;;9.73;;
40637;SDS011;26336;44.696;10.622;2023-03-05T08:39:13;12.67;;;8.40;;
40637;SDS011;26336;44.696;10.622;2023-03-05T08:42:17;14.13;;;8.90;;
40637;SDS011;26336;44.696;10.622;2023-03-05T08:45:21;14.17;;;8.87;;
40637;SDS011;26336;44.696;10.622;2023-03-05T08:48:26;14.77;;;9.30;;
40637;SDS011;26336;44.696;10.622;2023-03-05T08:51:30;16.73;;;9.43;;
40637;SDS011;26336;44.696;10.622;2023-03-05T08:54:39;14.60;;;8.43;;
40637;SDS011;26336;44.696;10.622;2023-03-05T08:57:43;16.10;;;8.97;;
40637;SDS011;26336;44.696;10.622;2023-03-05T09:00:47;14.63;;;8.10;;
40637;SDS011;26336;44.696;10.622;2023-03-05T09:03:51;10.87;;;7.60;;
40637;SDS011;26336;44.696;10.622;2023-03-05T09:06:59;13.80;;;9.10;;
40637;SDS011;26336;44.696;10.622;2023-03-05T09:10:06;14.70;;;8.70;;
40637;SDS011;26336;44.696;10.622;2023-03-05T09:13:20;13.40;;;7.93;;
40637;SDS011;26336;44.696;10.622;2023-03-05T09:16:25;16.27;;;8.27;;
40637;SDS011;26336;44.696;10.622;2023-03-05T09:19:33;10.37;;;6.73;;
40637;SDS011;26336;44.696;10.622;2023-03-05T09:22:38;13.33;;;6.63;;
40637;SDS011;26336;44.696;10.622;2023-03-05T09:25:45;11.90;;;8.10;;
40637;SDS011;26336;44.696;10.622;2023-03-05T09:28:50;14.03;;;8.83;;
40637;SDS011;26336;44.696;10.622;2023-03-05T09:31:54;17.57;;;9.33;;
40637;SDS011;26336;44.696;10.622;2023-03-05T09:34:58;13.60;;;7.77;;
40637;SDS011;26336;44.696;10.622;2023-03-05T09:38:03;16.30;;;8.10;;
40637;SDS011;26336;44.696;10.622;2023-03-05T09:47:59;16.47;;;10.17;;
40637;SDS011;26336;44.696;10.622;2023-03-05T09:51:24;16.37;;;10.03;;
40637;SDS011;26336;44.696;10.622;2023-03-05T09:54:36;17.25;;;10.93;;
40637;SDS011;26336;44.696;10.622;2023-03-05T09:57:47;19.87;;;10.70;;
40637;SDS011;26336;44.696;10.622;2023-03-05T10:01:38;17.55;;;9.68;;
40637;SDS011;26336;44.696;10.622;2023-03-05T10:04:24;20.33;;;10.10;;
40637;SDS011;26336;44.696;10.622;2023-03-05T10:07:52;15.68;;;9.52;;
40637;SDS011;26336;44.696;10.622;2023-03-05T10:11:02;17.48;;;9.50;;
40637;SDS011;26336;44.696;10.622;2023-03-05T10:17:45;14.85;;;9.18;;
40637;SDS011;26336;44.696;10.622;2023-03-05T10:21:30;18.60;;;11.35;;
40637;SDS011;26336;44.696;10.622;2023-03-05T10:28:42;17.15;;;10.68;;
40637;SDS011;26336;44.696;10.622;2023-03-05T10:32:04;17.27;;;9.18;;
40637;SDS011;26336;44.696;10.622;2023-03-05T10:35:51;14.90;;;8.45;;
40637;SDS011;26336;44.696;10.622;2023-03-05T10:43:01;19.33;;;11.10;;
40637;SDS011;26336;44.696;10.622;2023-03-05T10:46:20;17.88;;;11.20;;
40637;SDS011;26336;44.696;10.622;2023-03-05T10:49:29;18.95;;;10.65;;
40637;SDS011;26336;44.696;10.622;2023-03-05T10:52:38;22.52;;;12.57;;
40637;SDS011;26336;44.696;10.622;2023-03-05T10:55:48;17.63;;;11.65;;
40637;SDS011;26336;44.696;10.622;2023-03-05T10:58:58;18.70;;;10.45;;
40637;SDS011;26336;44.696;10.622;2023-03-05T11:02:06;16.45;;;10.68;;
40637;SDS011;26336;44.696;10.622;2023-03-05T11:08:48;18.17;;;12.23;;
40637;SDS011;26336;44.696;10.622;2023-03-05T11:12:03;19.27;;;11.65;;
40637;SDS011;26336;44.696;10.622;2023-03-05T11:18:19;18.42;;;11.77;;
40637;SDS011;26336;44.696;10.622;2023-03-05T11:21:25;19.50;;;12.45;;
40637;SDS011;26336;44.696;10.622;2023-03-05T11:24:31;16.90;;;11.43;;
40637;SDS011;26336;44.696;10.622;2023-03-05T11:27:57;11.45;;;8.30;;
40637;SDS011;26336;44.696;10.622;2023-03-05T11:37:24;21.38;;;12.63;;
40637;SDS011;26336;44.696;10.622;2023-03-05T11:40:33;17.70;;;11.73;;
40637;SDS011;26336;44.696;10.622;2023-03-05T11:50:55;19.30;;;12.38;;
40637;SDS011;26336;44.696;10.622;2023-03-05T12:01:41;19.17;;;11.70;;
40637;SDS011;26336;44.696;10.622;2023-03-05T12:04:51;14.48;;;8.85;;
40637;SDS011;26336;44.696;10.622;2023-03-05T12:07:57;18.05;;;11.90;;
40637;SDS011;26336;44.696;10.622;2023-03-05T12:11:05;23.73;;;13.07;;
40637;SDS011;26336;44.696;10.622;2023-03-05T12:14:22;18.20;;;13.63;;
40637;SDS011;26336;44.696;10.622;2023-03-05T12:24:40;22.70;;;12.82;;
40637;SDS011;26336;44.696;10.622;2023-03-05T12:27:45;18.55;;;11.40;;
40637;SDS011;26336;44.696;10.622;2023-03-05T12:31:40;13.43;;;7.85;;
40637;SDS011;26336;44.696;10.622;2023-03-05T12:34:48;21.38;;;12.40;;
40637;SDS011;26336;44.696;10.622;2023-03-05T12:38:19;19.92;;;12.02;;
40637;SDS011;26336;44.696;10.622;2023-03-05T12:41:33;18.05;;;12.02;;
40637;SDS011;26336;44.696;10.622;2023-03-05T12:44:38;19.10;;;12.50;;
40637;SDS011;26336;44.696;10.622;2023-03-05T12:47:45;20.48;;;12.60;;
40637;SDS011;26336;44.696;10.622;2023-03-05T12:51:33;19.27;;;11.13;;
40637;SDS011;26336;44.696;10.622;2023-03-05T12:54:42;19.25;;;11.95;;
40637;SDS011;26336;44.696;10.622;2023-03-05T12:57:47;19.83;;;11.52;;
40637;SDS011;26336;44.696;10.622;2023-03-05T13:04:21;20.55;;;12.27;;
40637;SDS011;26336;44.696;10.622;2023-03-05T13:07:43;19.15;;;10.82;;
40637;SDS011;26336;44.696;10.622;2023-03-05T13:10:58;19.87;;;11.37;;
40637;SDS011;26336;44.696;10.622;2023-03-05T13:17:51;21.90;;;11.60;;
40637;SDS011;26336;44.696;10.622;2023-03-05T13:21:02;21.30;;;12.85;;
40637;SDS011;26336;44.696;10.622;2023-03-05T13:24:15;18.30;;;11.00;;
40637;SDS011;26336;44.696;10.622;2023-03-05T13:27:28;13.95;;;8.57;;
40637;SDS011;26336;44.696;10.622;2023-03-05T13:30:34;12.98;;;8.23;;
40637;SDS011;26336;44.696;10.622;2023-03-05T13:33:38;21.27;;;11.57;;
40637;SDS011;26336;44.696;10.622;2023-03-05T13:36:52;19.95;;;11.55;;
40637;SDS011;26336;44.696;10.622;2023-03-05T13:40:19;22.67;;;11.35;;
40637;SDS011;26336;44.696;10.622;2023-03-05T13:43:28;18.55;;;12.10;;
40637;SDS011;26336;44.696;10.622;2023-03-05T13:46:38;22.63;;;11.32;;
40637;SDS011;26336;44.696;10.622;2023-03-05T13:49:42;18.55;;;10.63;;
40637;SDS011;26336;44.696;10.622;2023-03-05T13:52:46;19.77;;;11.63;;
40637;SDS011;26336;44.696;10.622;2023-03-05T13:55:52;21.25;;;11.05;;
40637;SDS011;26336;44.696;10.622;2023-03-05T13:59:04;20.13;;;11.25;;
40637;SDS011;26336;44.696;10.622;2023-03-05T14:02:21;22.13;;;10.82;;
40637;SDS011;26336;44.696;10.622;2023-03-05T14:05:27;20.55;;;12.15;;
40637;SDS011;26336;44.696;10.622;2023-03-05T14:08:33;18.60;;;10.60;;
40637;SDS011;26336;44.696;10.622;2023-03-05T14:11:40;18.95;;;10.70;;
40637;SDS011;26336;44.696;10.622;2023-03-05T14:14:44;18.15;;;10.30;;
40637;SDS011;26336;44.696;10.622;2023-03-05T14:17:49;20.58;;;10.93;;
40637;SDS011;26336;44.696;10.622;2023-03-05T14:24:19;19.52;;;11.25;;
40637;SDS011;26336;44.696;10.622;2023-03-05T14:27:25;16.80;;;10.57;;
40637;SDS011;26336;44.696;10.622;2023-03-05T14:30:33;19.95;;;11.60;;
40637;SDS011;26336;44.696;10.622;2023-03-05T14:33:41;20.02;;;10.27;;
40637;SDS011;26336;44.696;10.622;2023-03-05T14:36:47;17.35;;;11.35;;
40637;SDS011;26336;44.696;10.622;2023-03-05T14:39:53;23.25;;;11.43;;
40637;SDS011;26336;44.696;10.622;2023-03-05T14:43:09;18.65;;;11.40;;
40637;SDS011;26336;44.696;10.622;2023-03-05T14:46:13;15.38;;;7.38;;
40637;SDS011;26336;44.696;10.622;2023-03-05T14:49:18;15.05;;;9.52;;
40637;SDS011;26336;44.696;10.622;2023-03-05T14:52:23;17.50;;;10.90;;
40637;SDS011;26336;44.696;10.622;2023-03-05T14:55:31;17.95;;;11.25;;
40637;SDS011;26336;44.696;10.622;2023-03-05T14:58:37;21.38;;;11.45;;
40637;SDS011;26336;44.696;10.622;2023-03-05T15:01:43;18.58;;;10.50;;
40637;SDS011;26336;44.696;10.622;2023-03-05T15:04:47;21.10;;;11.05;;
40637;SDS011;26336;44.696;10.622;2023-03-05T15:07:52;22.40;;;11.25;;
40637;SDS011;26336;44.696;10.622;2023-03-05T15:10:56;19.85;;;11.05;;
40637;SDS011;26336;44.696;10.622;2023-03-05T15:18:14;18.27;;;11.13;;
40637;SDS011;26336;44.696;10.622;2023-03-05T15:21:20;7.97;;;5.50;;
40637;SDS011;26336;44.696;10.622;2023-03-05T15:24:24;18.63;;;11.38;;
40637;SDS011;26336;44.696;10.622;2023-03-05T15:27:28;22.20;;;11.07;;
40637;SDS011;26336;44.696;10.622;2023-03-05T15:30:33;18.65;;;10.98;;
40637;SDS011;26336;44.696;10.622;2023-03-05T15:33:40;17.77;;;10.30;;
40637;SDS011;26336;44.696;10.622;2023-03-05T15:36:44;20.20;;;10.10;;
40637;SDS011;26336;44.696;10.622;2023-03-05T15:39:51;18.98;;;10.50;;
40637;SDS011;26336;44.696;10.622;2023-03-05T15:42:55;18.85;;;10.05;;
40637;SDS011;26336;44.696;10.622;2023-03-05T15:45:59;17.95;;;9.75;;
40637;SDS011;26336;44.696;10.622;2023-03-05T15:49:03;14.32;;;8.10;;
40637;SDS011;26336;44.696;10.622;2023-03-05T15:52:07;18.38;;;10.30;;
40637;SDS011;26336;44.696;10.622;2023-03-05T15:55:12;20.92;;;11.48;;
40637;SDS011;26336;44.696;10.622;2023-03-05T15:58:16;23.60;;;11.65;;
40637;SDS011;26336;44.696;10.622;2023-03-05T16:01:20;18.73;;;10.60;;
40637;SDS011;26336;44.696;10.622;2023-03-05T16:04:26;21.73;;;11.27;;
40637;SDS011;26336;44.696;10.622;2023-03-05T16:07:32;12.30;;;7.40;;
40637;SDS011;26336;44.696;10.622;2023-03-05T16:10:38;19.00;;;10.55;;
40637;SDS011;26336;44.696;10.622;2023-03-05T16:13:43;15.45;;;8.95;;
40637;SDS011;26336;44.696;10.622;2023-03-05T16:16:47;20.15;;;10.85;;
40637;SDS011;26336;44.696;10.622;2023-03-05T16:19:53;14.18;;;7.95;;
40637;SDS011;26336;44.696;10.622;2023-03-05T16:22:58;25.02;;;12.10;;
40637;SDS011;26336;44.696;10.622;2023-03-05T16:26:02;19.25;;;11.02;;
40637;SDS011;26336;44.696;10.622;2023-03-05T16:29:06;16.83;;;10.25;;
40637;SDS011;26336;44.696;10.622;2023-03-05T16:32:13;20.80;;;10.63;;
40637;SDS011;26336;44.696;10.622;2023-03-05T16:35:22;20.13;;;11.48;;
40637;SDS011;26336;44.696;10.622;2023-03-05T16:38:26;16.90;;;9.57;;
40637;SDS011;26336;44.696;10.622;2023-03-05T16:41:30;14.60;;;9.60;;
40637;SDS011;26336;44.696;10.622;2023-03-05T16:44:34;17.23;;;8.90;;
40637;SDS011;26336;44.696;10.622;2023-03-05T16:47:38;14.57;;;8.95;;
40637;SDS011;26336;44.696;10.622;2023-03-05T16:50:43;22.67;;;10.45;;
40637;SDS011;26336;44.696;10.622;2023-03-05T16:53:47;20.98;;;10.20;;
40637;SDS011;26336;44.696;10.622;2023-03-05T16:56:51;22.95;;;10.63;;
40637;SDS011;26336;44.696;10.622;2023-03-05T16:59:56;19.27;;;10.60;;
40637;SDS011;26336;44.696;10.622;2023-03-05T17:03:01;19.15;;;9.85;;
40637;SDS011;26336;44.696;10.622;2023-03-05T17:06:12;21.27;;;9.32;;
40637;SDS011;26336;44.696;10.622;2023-03-05T17:09:18;19.83;;;10.88;;
40637;SDS011;26336;44.696;10.622;2023-03-05T17:12:29;21.05;;;10.70;;
40637;SDS011;26336;44.696;10.622;2023-03-05T17:15:33;21.30;;;11.35;;
40637;SDS011;26336;44.696;10.622;2023-03-05T17:18:37;21.88;;;10.45;;
40637;SDS011;26336;44.696;10.622;2023-03-05T17:21:41;16.65;;;10.70;;
40637;SDS011;26336;44.696;10.622;2023-03-05T17:24:45;23.30;;;12.35;;
40637;SDS011;26336;44.696;10.622;2023-03-05T17:27:50;16.42;;;9.35;;
40637;SDS011;26336;44.696;10.622;2023-03-05T17:30:55;17.17;;;10.13;;
40637;SDS011;26336;44.696;10.622;2023-03-05T17:34:02;16.27;;;8.57;;
40637;SDS011;26336;44.696;10.622;2023-03-05T17:37:07;16.25;;;8.27;;
40637;SDS011;26336;44.696;10.622;2023-03-05T17:40:12;19.92;;;9.18;;
40637;SDS011;26336;44.696;10.622;2023-03-05T17:43:17;13.02;;;8.15;;
40637;SDS011;26336;44.696;10.622;2023-03-05T17:46:21;12.98;;;6.70;;
40637;SDS011;26336;44.696;10.622;2023-03-05T17:49:25;12.55;;;5.90;;
40637;SDS011;26336;44.696;10.622;2023-03-05T17:52:32;13.00;;;6.78;;
40637;SDS011;26336;44.696;10.622;2023-03-05T17:55:37;14.68;;;6.43;;
40637;SDS011;26336;44.696;10.622;2023-03-05T17:58:45;7.13;;;5.63;;
40637;SDS011;26336;44.696;10.622;2023-03-05T18:01:50;8.40;;;5.25;;
40637;SDS011;26336;44.696;10.622;2023-03-05T18:04:54;13.32;;;6.70;;
40637;SDS011;26336;44.696;10.622;2023-03-05T18:07:58;13.43;;;6.63;;
40637;SDS011;26336;44.696;10.622;2023-03-05T18:11:03;11.95;;;6.63;;
40637;SDS011;26336;44.696;10.622;2023-03-05T18:14:07;12.40;;;6.80;;
40637;SDS011;26336;44.696;10.622;2023-03-05T18:17:17;10.65;;;6.05;;
40637;SDS011;26336;44.696;10.622;2023-03-05T18:23:33;12.77;;;7.18;;
40637;SDS011;26336;44.696;10.622;2023-03-05T18:26:37;11.95;;;6.78;;
40637;SDS011;26336;44.696;10.622;2023-03-05T18:29:41;11.60;;;6.85;;
40637;SDS011;26336;44.696;10.622;2023-03-05T18:32:45;13.32;;;7.20;;
40637;SDS011;26336;44.696;10.622;2023-03-05T18:35:50;12.82;;;7.10;;
40637;SDS011;26336;44.696;10.622;2023-03-05T18:39:00;11.13;;;6.65;;
40637;SDS011;26336;44.696;10.622;2023-03-05T18:42:09;14.48;;;7.68;;
40637;SDS011;26336;44.696;10.622;2023-03-05T18:45:15;12.25;;;7.18;;
40637;SDS011;26336;44.696;10.622;2023-03-05T18:48:23;18.60;;;8.48;;
40637;SDS011;26336;44.696;10.622;2023-03-05T18:51:28;13.48;;;7.68;;
40637;SDS011;26336;44.696;10.622;2023-03-05T18:54:32;17.73;;;8.85;;
40637;SDS011;26336;44.696;10.622;2023-03-05T18:57:39;17.88;;;9.02;;
40637;SDS011;26336;44.696;10.622;2023-03-05T19:00:43;13.70;;;8.48;;
40637;SDS011;26336;44.696;10.622;2023-03-05T19:03:49;15.85;;;8.02;;
40637;SDS011;26336;44.696;10.622;2023-03-05T19:06:53;19.58;;;8.85;;
40637;SDS011;26336;44.696;10.622;2023-03-05T19:10:00;14.43;;;8.23;;
40637;SDS011;26336;44.696;10.622;2023-03-05T19:13:55;18.42;;;9.27;;
40637;SDS011;26336;44.696;10.622;2023-03-05T19:16:46;15.80;;;8.73;;